createdAt,value
2019-01-04T00:01:29.912Z,100.24
2019-01-04T00:04:34.203Z,99.07
2019-01-04T00:07:38.802Z,98.69
2019-01-04T00:10:43.122Z,98.75
2019-01-04T00:13:47.454Z,99.27
2019-01-04T00:16:51.768Z,99.29
2019-01-04T00:19:56.104Z,99.64
2019-01-04T00:23:00.433Z,99.60
2019-01-04T00:26:05.100Z,99.47
2019-01-04T00:29:09.633Z,98.21
2019-01-04T00:32:13.934Z,98.01
2019-01-04T00:35:18.303Z,98.08
2019-01-04T00:38:22.564Z,98.61
2019-01-04T00:41:26.907Z,98.63
2019-01-04T00:44:31.212Z,98.80
2019-01-04T00:47:35.559Z,99.01
2019-01-04T00:50:39.874Z,99.41
2019-01-04T00:53:44.231Z,100.56
2019-01-04T00:57:21.737Z,100.11
2019-01-04T01:01:05.984Z,100.40
2019-01-04T01:04:57.454Z,101.80
2019-01-04T01:08:41.402Z,101.74
2019-01-04T01:12:21.292Z,103.24
2019-01-04T01:16:05.251Z,103.74
2019-01-04T01:19:32.933Z,103.96
2019-01-04T01:23:29.794Z,104.87
2019-01-04T01:27:44.999Z,104.71
2019-01-04T01:31:28.953Z,105.76
2019-01-04T01:35:15.064Z,105.81
2019-01-04T01:38:59.478Z,106.41
2019-01-04T01:42:49.337Z,107.12
2019-01-04T01:46:34.879Z,107.33
2019-01-04T01:50:16.314Z,107.35
2019-01-04T01:53:20.487Z,107.54
2019-01-04T01:56:24.869Z,107.68
2019-01-04T01:59:29.322Z,108.19
2019-01-04T02:02:33.588Z,108.17
2019-01-04T02:05:38.048Z,108.78
2019-01-04T02:08:42.337Z,108.73
2019-01-04T02:11:46.656Z,108.84
2019-01-04T02:14:51.083Z,108.75
2019-01-04T02:17:55.397Z,108.99
2019-01-04T02:20:59.777Z,109.18
2019-01-04T02:24:04.077Z,109.19
2019-01-04T02:27:08.369Z,109.42
2019-01-04T02:30:12.716Z,109.95
2019-01-04T02:33:17.107Z,109.90
2019-01-04T02:36:21.427Z,110.05
2019-01-04T02:39:25.734Z,110.09
2019-01-04T02:42:30.058Z,110.54
2019-01-04T02:45:34.377Z,110.79
2019-01-04T02:48:38.714Z,110.70
2019-01-04T02:51:42.992Z,110.90
2019-01-04T02:54:47.331Z,110.81
2019-01-04T02:57:51.695Z,110.66
2019-01-04T03:00:56.082Z,110.61
2019-01-04T03:04:00.386Z,110.43
2019-01-04T03:07:04.756Z,110.16
2019-01-04T03:10:09.411Z,109.77
2019-01-04T03:13:13.704Z,109.11
2019-01-04T03:16:18.061Z,108.48
2019-01-04T03:19:22.388Z,107.83
2019-01-04T03:22:26.771Z,107.64
2019-01-04T03:25:31.058Z,107.30
2019-01-04T03:28:35.338Z,107.41
2019-01-04T03:31:39.609Z,107.22
2019-01-04T03:34:43.881Z,107.31
2019-01-04T03:37:48.207Z,107.12
2019-01-04T03:40:52.521Z,106.96
2019-01-04T03:43:56.838Z,106.73
2019-01-04T03:47:01.131Z,106.48
2019-01-04T03:50:05.679Z,106.76
2019-01-04T03:53:09.946Z,107.27
2019-01-04T03:56:14.239Z,106.93
2019-01-04T03:59:18.509Z,107.01
2019-01-04T04:02:22.836Z,106.48
2019-01-04T04:05:27.216Z,106.36
2019-01-04T04:08:31.501Z,106.24
2019-01-04T04:11:35.839Z,106.02
2019-01-04T04:14:40.213Z,105.44
2019-01-04T04:17:44.461Z,105.32
2019-01-04T04:20:48.771Z,105.26
2019-01-04T04:23:53.106Z,105.39
2019-01-04T04:26:57.430Z,105.27
2019-01-04T04:30:01.834Z,105.13
2019-01-04T04:33:06.221Z,105.15
2019-01-04T04:36:10.518Z,105.29
2019-01-04T04:39:14.781Z,105.20
2019-01-04T04:42:19.043Z,105.21
2019-01-04T04:45:23.347Z,105.16
2019-01-04T04:48:27.646Z,104.97
2019-01-04T04:51:32.026Z,104.83
2019-01-04T04:54:36.355Z,104.90
2019-01-04T04:57:40.633Z,104.74
2019-01-04T05:00:45.073Z,104.37
2019-01-04T05:03:49.341Z,104.52
2019-01-04T05:06:53.657Z,103.99
2019-01-04T05:09:58.081Z,104.15
2019-01-04T05:13:02.406Z,104.07
2019-01-04T05:16:06.752Z,103.48
2019-01-04T05:19:11.048Z,102.91
2019-01-04T05:22:15.362Z,102.84
2019-01-04T05:25:19.696Z,102.49
2019-01-04T05:28:24.050Z,103.09
2019-01-04T05:31:28.411Z,103.36
2019-01-04T05:34:32.663Z,103.39
2019-01-04T05:37:37.027Z,103.89
2019-01-04T05:40:41.316Z,103.97
2019-01-04T05:43:45.713Z,104.29
2019-01-04T05:46:50.070Z,104.58
2019-01-04T05:49:54.438Z,104.36
2019-01-04T05:52:58.702Z,103.92
2019-01-04T05:56:03.023Z,104.05
2019-01-04T05:59:07.361Z,103.78
2019-01-04T06:02:12.046Z,104.09
2019-01-04T06:05:16.307Z,104.42
2019-01-04T06:08:20.616Z,104.46
2019-01-04T06:11:24.918Z,103.99
2019-01-04T06:14:29.336Z,104.40
2019-01-04T06:17:33.643Z,104.19
2019-01-04T06:20:37.905Z,104.48
2019-01-04T06:23:42.211Z,105.17
2019-01-04T06:26:46.497Z,105.15
2019-01-04T06:29:50.737Z,104.81
2019-01-04T06:32:55.198Z,104.54
2019-01-04T06:35:59.585Z,105.26
2019-01-04T06:39:05.250Z,104.77
2019-01-04T06:42:09.568Z,104.70
2019-01-04T06:45:14.015Z,105.38
2019-01-04T06:48:18.323Z,104.53
2019-01-04T06:51:27.737Z,104.98
2019-01-04T06:55:04.025Z,104.96
2019-01-04T06:58:08.474Z,105.24
2019-01-04T07:01:12.921Z,105.45
2019-01-04T07:04:18.492Z,105.32
2019-01-04T07:07:22.867Z,105.57
2019-01-04T07:10:27.160Z,105.87
2019-01-04T07:13:31.451Z,106.29
2019-01-04T07:16:35.818Z,106.71
2019-01-04T07:19:40.141Z,106.79
2019-01-04T07:22:44.561Z,107.27
2019-01-04T07:25:48.848Z,107.48
2019-01-04T07:28:53.080Z,107.78
2019-01-04T07:31:57.439Z,108.02
2019-01-04T07:35:03.375Z,108.57
2019-01-04T07:38:07.829Z,108.82
2019-01-04T07:41:12.220Z,109.12
2019-01-04T07:44:16.537Z,109.47
2019-01-04T07:47:21.035Z,109.46
2019-01-04T07:50:25.334Z,110.12
2019-01-04T07:53:31.786Z,110.47
2019-01-04T07:56:36.081Z,110.64
2019-01-04T07:59:40.390Z,110.75
2019-01-04T08:02:49.277Z,110.85
2019-01-04T08:05:58.543Z,111.07
2019-01-04T08:09:04.205Z,111.10
2019-01-04T08:12:08.526Z,111.20
2019-01-04T08:15:13.144Z,111.26
2019-01-04T08:18:17.510Z,111.38
2019-01-04T08:21:21.792Z,111.54
2019-01-04T08:24:26.056Z,111.20
2019-01-04T08:27:30.374Z,111.00
2019-01-04T08:30:34.680Z,110.54
2019-01-04T08:33:38.981Z,110.23
2019-01-04T08:36:43.321Z,109.92
2019-01-04T08:39:47.641Z,109.77
2019-01-04T08:42:51.942Z,109.72
2019-01-04T08:45:56.211Z,109.48
2019-01-04T08:49:00.525Z,108.99
2019-01-04T08:52:04.850Z,108.47
2019-01-04T08:55:23.804Z,107.83
2019-01-04T08:58:28.121Z,107.54
2019-01-04T09:01:32.356Z,106.86
2019-01-04T09:04:36.682Z,106.13
2019-01-04T09:07:40.995Z,105.51
2019-01-04T09:10:45.295Z,104.70
2019-01-04T09:13:49.562Z,104.49
2019-01-04T09:16:53.912Z,104.20
2019-01-04T09:19:58.171Z,103.92
2019-01-04T09:23:04.021Z,104.11
2019-01-04T09:26:08.285Z,103.33
2019-01-04T09:29:12.562Z,102.92
2019-01-04T09:32:16.861Z,103.08
2019-01-04T09:35:21.161Z,103.17
2019-01-04T09:38:25.406Z,102.06
2019-01-04T09:41:32.440Z,101.15
2019-01-04T09:44:36.790Z,101.04
2019-01-04T09:47:41.092Z,101.91
2019-01-04T09:50:45.426Z,101.56
2019-01-04T09:53:49.832Z,102.65
2019-01-04T09:56:54.140Z,103.42
2019-01-04T09:59:58.410Z,102.36
2019-01-04T10:03:02.780Z,103.89
2019-01-04T10:06:09.542Z,103.84
2019-01-04T10:09:13.821Z,103.84
2019-01-04T10:12:18.093Z,102.82
2019-01-04T10:15:22.376Z,102.77
2019-01-04T10:18:26.697Z,103.71
2019-01-04T10:21:30.926Z,104.26
2019-01-04T10:24:35.225Z,104.84
2019-01-04T10:27:39.544Z,105.00
2019-01-04T10:30:43.795Z,104.73
2019-01-04T10:33:48.085Z,104.66
2019-01-04T10:36:52.886Z,105.01
2019-01-04T10:39:57.196Z,105.11
2019-01-04T10:43:01.664Z,105.30
2019-01-04T10:46:06.042Z,105.42
2019-01-04T10:49:10.810Z,106.01
2019-01-04T10:52:15.186Z,106.38
2019-01-04T10:55:19.526Z,105.74
2019-01-04T10:58:23.820Z,105.91
2019-01-04T11:01:28.127Z,105.19
2019-01-04T11:04:32.693Z,105.40
2019-01-04T11:07:37.074Z,105.77
2019-01-04T11:10:41.401Z,105.84
2019-01-04T11:13:45.667Z,105.13
2019-01-04T11:16:49.964Z,104.09
2019-01-04T11:19:54.308Z,103.98
2019-01-04T11:23:05.586Z,103.36
2019-01-04T11:26:23.533Z,102.57
2019-01-04T11:30:03.360Z,102.49
2019-01-04T11:33:25.060Z,101.63
2019-01-04T11:36:39.380Z,102.09
2019-01-04T11:40:07.766Z,102.04
2019-01-04T11:43:45.926Z,102.37
2019-01-04T11:47:00.061Z,101.66
2019-01-04T11:50:45.314Z,100.67
2019-01-04T11:53:49.681Z,101.27
2019-01-04T11:56:54.399Z,99.87
2019-01-04T11:59:59.561Z,99.40
2019-01-04T12:03:03.940Z,99.61
2019-01-04T12:06:08.338Z,100.02
2019-01-04T12:09:12.611Z,100.46
2019-01-04T12:12:16.931Z,101.64
2019-01-04T12:15:21.248Z,101.53
2019-01-04T12:18:25.556Z,101.95
2019-01-04T12:21:29.859Z,102.41
2019-01-04T12:24:34.157Z,103.04
2019-01-04T12:27:38.481Z,104.11
2019-01-04T12:30:42.764Z,104.29
2019-01-04T12:33:47.075Z,103.64
2019-01-04T12:36:51.466Z,103.70
2019-01-04T12:39:55.799Z,103.43
2019-01-04T12:43:00.134Z,102.49
2019-01-04T12:46:04.419Z,102.10
2019-01-04T12:49:08.746Z,101.92
2019-01-04T12:52:13.134Z,102.01
2019-01-04T12:55:17.434Z,102.26
2019-01-04T12:58:21.725Z,102.43
2019-01-04T13:01:26.094Z,103.10
2019-01-04T13:04:30.434Z,103.42
2019-01-04T13:07:34.840Z,103.76
2019-01-04T13:10:39.153Z,105.21
2019-01-04T13:13:43.464Z,105.03
2019-01-04T13:16:47.784Z,105.65
2019-01-04T13:19:52.050Z,105.99
2019-01-04T13:22:56.363Z,106.35
2019-01-04T13:26:00.663Z,106.45
2019-01-04T13:29:04.944Z,106.66
2019-01-04T13:32:09.338Z,106.35
2019-01-04T13:35:13.655Z,106.89
2019-01-04T13:38:20.139Z,107.01
2019-01-04T13:41:24.078Z,107.35
2019-01-04T13:44:28.465Z,107.70
2019-01-04T13:47:32.782Z,107.77
2019-01-04T13:50:37.138Z,108.12
2019-01-04T13:53:41.433Z,108.51
2019-01-04T13:56:45.781Z,108.91
2019-01-04T13:59:50.211Z,109.12
2019-01-04T14:02:54.490Z,108.88
2019-01-04T14:05:58.774Z,108.98
2019-01-04T14:09:03.997Z,108.59
2019-01-04T14:12:08.345Z,108.46
2019-01-04T14:15:12.730Z,108.65
2019-01-04T14:18:17.020Z,108.86
2019-01-04T14:21:21.379Z,109.06
2019-01-04T14:24:25.633Z,109.05
2019-01-04T14:27:30.049Z,109.12
2019-01-04T14:30:34.602Z,109.39
2019-01-04T14:33:38.874Z,109.57
2019-01-04T14:36:43.199Z,109.45
2019-01-04T14:39:47.483Z,109.54
2019-01-04T14:42:51.764Z,109.34
2019-01-04T14:45:56.035Z,109.52
2019-01-04T14:49:00.320Z,109.70
2019-01-04T14:52:04.530Z,109.63
2019-01-04T14:55:08.914Z,109.54
2019-01-04T14:58:13.308Z,109.11
2019-01-04T15:01:17.730Z,109.17
2019-01-04T15:04:22.023Z,109.18
2019-01-04T15:07:26.408Z,108.87
2019-01-04T15:10:30.709Z,108.51
2019-01-04T15:13:35.105Z,108.01
2019-01-04T15:16:39.441Z,106.89
2019-01-04T15:19:43.737Z,106.93
2019-01-04T15:22:48.154Z,106.52
2019-01-04T15:25:52.489Z,106.43
2019-01-04T15:28:56.763Z,106.05
2019-01-04T15:32:02.261Z,106.22
2019-01-04T15:35:06.628Z,106.50
2019-01-04T15:38:12.421Z,106.48
2019-01-04T15:41:16.710Z,106.38
2019-01-04T15:44:21.155Z,106.72
2019-01-04T15:47:25.394Z,106.31
2019-01-04T15:50:29.713Z,106.55
2019-01-04T15:53:34.150Z,106.93
2019-01-04T15:56:38.614Z,106.81
2019-01-04T15:59:42.900Z,107.36
2019-01-04T16:02:47.360Z,107.49
2019-01-04T16:05:51.630Z,107.79
2019-01-04T16:08:55.965Z,108.11
2019-01-04T16:12:00.239Z,108.28
2019-01-04T16:15:06.512Z,108.35
2019-01-04T16:18:10.897Z,108.99
2019-01-04T16:21:15.220Z,108.92
2019-01-04T16:24:19.528Z,108.86
2019-01-04T16:27:23.852Z,109.02
2019-01-04T16:33:46.199Z,109.41
2019-01-04T16:36:50.597Z,110.19
2019-01-04T16:39:57.533Z,110.73
2019-01-04T16:43:04.963Z,110.85
2019-01-04T16:46:08.302Z,110.97
2019-01-04T16:49:12.659Z,111.03
2019-01-04T16:52:17.039Z,111.10
2019-01-04T16:55:23.818Z,111.33
2019-01-04T16:58:28.570Z,111.16
2019-01-04T17:01:33.077Z,111.15
2019-01-04T17:04:37.395Z,111.03
2019-01-04T17:07:41.812Z,111.09
2019-01-04T17:10:46.108Z,111.04
2019-01-04T17:13:50.509Z,111.15
2019-01-04T17:16:54.832Z,111.16
2019-01-04T17:20:01.417Z,111.17
2019-01-04T17:23:05.749Z,111.33
2019-01-04T17:26:10.069Z,111.50
2019-01-04T17:29:14.480Z,111.47
2019-01-04T17:32:18.798Z,111.60
2019-01-04T17:35:23.144Z,111.74
2019-01-04T17:38:30.100Z,111.70
2019-01-04T17:41:34.446Z,111.72
2019-01-04T17:44:38.717Z,111.75
2019-01-04T17:47:43.173Z,111.80
2019-01-04T17:50:47.469Z,111.76
2019-01-04T17:53:51.768Z,111.66
2019-01-04T17:56:56.078Z,111.86
2019-01-04T18:00:00.394Z,112.05
2019-01-04T18:03:06.718Z,112.05
2019-01-04T18:06:11.048Z,112.05
2019-01-04T18:09:15.335Z,112.17
2019-01-04T18:12:19.648Z,112.27
2019-01-04T18:15:25.072Z,112.56
2019-01-04T18:18:29.399Z,112.63
2019-01-04T18:21:33.855Z,112.73
2019-01-04T18:24:38.174Z,112.92
2019-01-04T18:27:42.609Z,113.09
2019-01-04T18:30:47.000Z,113.05
2019-01-04T18:33:51.378Z,113.05
2019-01-04T18:36:55.862Z,113.02
2019-01-04T18:40:00.377Z,113.19
2019-01-04T18:43:04.863Z,113.34
2019-01-04T18:46:09.290Z,113.53
2019-01-04T18:49:13.632Z,113.60
2019-01-04T18:52:18.056Z,113.84
2019-01-04T18:55:22.412Z,113.88
2019-01-04T18:58:26.730Z,113.92
2019-01-04T19:01:31.005Z,113.89
2019-01-04T19:04:37.186Z,113.92
2019-01-04T19:07:41.437Z,113.78
2019-01-04T19:10:45.873Z,113.73
2019-01-04T19:13:50.171Z,113.75
2019-01-04T19:16:54.502Z,113.75
2019-01-04T19:19:58.907Z,113.79
2019-01-04T19:23:03.329Z,113.64
2019-01-04T19:26:07.612Z,113.72
2019-01-04T19:29:12.004Z,113.75
2019-01-04T19:32:16.278Z,113.71
2019-01-04T19:35:20.633Z,113.60
2019-01-04T19:38:24.893Z,113.56
2019-01-04T19:41:29.254Z,113.50
2019-01-04T19:44:33.567Z,113.49
2019-01-04T19:47:37.864Z,113.34
2019-01-04T19:50:42.210Z,113.27
2019-01-04T19:53:46.543Z,113.14
2019-01-04T19:56:50.876Z,113.19
2019-01-04T19:59:55.343Z,113.07
2019-01-04T20:02:59.598Z,113.10
2019-01-04T20:07:17.706Z,113.09
2019-01-04T20:11:06.879Z,113.11
2019-01-04T20:15:05.608Z,113.28
2019-01-04T20:18:34.506Z,113.30
2019-01-04T20:22:10.052Z,113.14
2019-01-04T20:25:45.251Z,113.21
2019-01-04T20:29:22.137Z,113.08
2019-01-04T20:32:58.946Z,112.85
2019-01-04T20:36:20.599Z,112.82
2019-01-04T20:39:49.914Z,112.52
2019-01-04T20:43:05.499Z,112.12
2019-01-04T20:46:28.543Z,111.85
2019-01-04T20:49:50.442Z,111.68
2019-01-04T20:53:19.878Z,111.35
2019-01-04T20:56:44.357Z,111.60
2019-01-04T21:00:10.373Z,111.66
2019-01-04T21:03:42.852Z,111.81
2019-01-04T21:07:00.677Z,111.92
2019-01-04T21:10:35.263Z,112.13
2019-01-04T21:14:04.367Z,112.02
2019-01-04T21:17:50.490Z,111.69
2019-01-04T21:21:06.604Z,111.62
2019-01-04T21:24:26.837Z,111.53
2019-01-04T21:27:44.877Z,111.52
2019-01-04T21:31:26.079Z,111.51
2019-01-04T21:34:48.002Z,111.72
2019-01-04T21:38:09.634Z,112.14
2019-01-04T21:41:32.842Z,112.34
2019-01-04T21:45:07.975Z,112.67
2019-01-04T21:48:29.973Z,112.75
2019-01-04T21:51:56.377Z,112.91
2019-01-04T21:55:18.226Z,112.81
2019-01-04T21:58:40.111Z,112.84
2019-01-04T22:02:08.983Z,112.96
2019-01-04T22:05:30.623Z,113.04
2019-01-04T22:08:56.566Z,113.00
2019-01-04T22:12:29.069Z,112.92
2019-01-04T22:15:50.664Z,112.89
2019-01-04T22:19:19.922Z,112.69
2019-01-04T22:22:47.634Z,112.73
2019-01-04T22:26:09.675Z,112.71
2019-01-04T22:29:31.762Z,112.66
2019-01-04T22:33:01.259Z,112.67
2019-01-04T22:36:16.272Z,112.66
2019-01-04T22:39:37.933Z,112.89
2019-01-04T22:43:04.148Z,112.93
2019-01-04T22:46:26.091Z,112.75
2019-01-04T22:50:07.267Z,112.53
2019-01-04T22:53:31.267Z,112.56
2019-01-04T22:56:54.582Z,112.54
2019-01-04T23:00:16.206Z,112.50
2019-01-04T23:03:51.366Z,112.45
2019-01-04T23:07:13.312Z,112.43
2019-01-04T23:10:48.806Z,112.24
2019-01-04T23:14:10.507Z,112.19
2019-01-04T23:17:34.771Z,112.31
2019-01-04T23:21:07.185Z,112.35
2019-01-04T23:24:33.402Z,112.55
2019-01-04T23:28:11.543Z,112.63
2019-01-04T23:31:33.359Z,112.77
2019-01-04T23:35:11.947Z,112.85
2019-01-04T23:38:30.191Z,113.08
2019-01-04T23:41:55.445Z,113.17
2019-01-04T23:45:18.683Z,113.40
2019-01-04T23:48:40.703Z,113.49
2019-01-04T23:52:02.295Z,113.53
2019-01-04T23:55:24.137Z,113.63
2019-01-04T23:59:02.301Z,113.59
